sensor_id;sensor_type;location;lat;lon;timestamp;P1;durP1;ratioP1;P2;durP2;ratioP2
8964;SDS011;4517;49.020;12.066;2023-02-26T00:01:21;9.90;;;9.10;;
8964;SDS011;4517;49.020;12.066;2023-02-26T00:03:49;10.73;;;9.93;;
8964;SDS011;4517;49.020;12.066;2023-02-26T00:06:16;8.93;;;8.47;;
8964;SDS011;4517;49.020;12.066;2023-02-26T00:08:41;11.00;;;10.37;;
8964;SDS011;4517;49.020;12.066;2023-02-26T00:11:07;9.13;;;8.50;;
8964;SDS011;4517;49.020;12.066;2023-02-26T00:13:34;10.63;;;9.80;;
8964;SDS011;4517;49.020;12.066;2023-02-26T00:16:01;9.67;;;9.27;;
8964;SDS011;4517;49.020;12.066;2023-02-26T00:18:27;9.77;;;9.27;;
8964;SDS011;4517;49.020;12.066;2023-02-26T00:20:53;14.13;;;10.07;;
8964;SDS011;4517;49.020;12.066;2023-02-26T00:23:20;10.20;;;9.60;;
8964;SDS011;4517;49.020;12.066;2023-02-26T00:25:45;9.97;;;9.57;;
8964;SDS011;4517;49.020;12.066;2023-02-26T00:28:11;10.13;;;9.60;;
8964;SDS011;4517;49.020;12.066;2023-02-26T00:30:38;9.40;;;8.87;;
8964;SDS011;4517;49.020;12.066;2023-02-26T00:33:04;9.07;;;8.27;;
8964;SDS011;4517;49.020;12.066;2023-02-26T00:35:30;8.67;;;8.00;;
8964;SDS011;4517;49.020;12.066;2023-02-26T00:37:58;8.73;;;8.23;;
8964;SDS011;4517;49.020;12.066;2023-02-26T00:40:47;9.17;;;8.47;;
8964;SDS011;4517;49.020;12.066;2023-02-26T00:43:16;9.63;;;9.07;;
8964;SDS011;4517;49.020;12.066;2023-02-26T00:45:44;7.90;;;7.60;;
8964;SDS011;4517;49.020;12.066;2023-02-26T00:48:25;8.67;;;8.27;;
8964;SDS011;4517;49.020;12.066;2023-02-26T00:51:06;8.80;;;8.30;;
8964;SDS011;4517;49.020;12.066;2023-02-26T00:56:25;9.50;;;9.00;;
8964;SDS011;4517;49.020;12.066;2023-02-26T00:58:51;9.80;;;9.30;;
8964;SDS011;4517;49.020;12.066;2023-02-26T01:01:16;8.17;;;7.77;;
8964;SDS011;4517;49.020;12.066;2023-02-26T01:03:42;9.13;;;8.33;;
8964;SDS011;4517;49.020;12.066;2023-02-26T01:06:12;8.40;;;7.90;;
8964;SDS011;4517;49.020;12.066;2023-02-26T01:08:47;9.43;;;8.73;;
8964;SDS011;4517;49.020;12.066;2023-02-26T01:11:18;8.93;;;8.20;;
8964;SDS011;4517;49.020;12.066;2023-02-26T01:13:44;8.00;;;7.70;;
8964;SDS011;4517;49.020;12.066;2023-02-26T01:16:11;9.33;;;8.70;;
8964;SDS011;4517;49.020;12.066;2023-02-26T01:18:42;8.60;;;8.20;;
8964;SDS011;4517;49.020;12.066;2023-02-26T01:21:14;9.23;;;8.33;;
8964;SDS011;4517;49.020;12.066;2023-02-26T01:23:44;8.27;;;7.87;;
8964;SDS011;4517;49.020;12.066;2023-02-26T01:26:23;8.17;;;7.73;;
8964;SDS011;4517;49.020;12.066;2023-02-26T01:28:51;8.00;;;7.50;;
8964;SDS011;4517;49.020;12.066;2023-02-26T01:34:19;8.73;;;8.10;;
8964;SDS011;4517;49.020;12.066;2023-02-26T01:37:01;8.43;;;7.93;;
8964;SDS011;4517;49.020;12.066;2023-02-26T01:39:39;9.70;;;9.10;;
8964;SDS011;4517;49.020;12.066;2023-02-26T01:42:18;9.87;;;9.17;;
8964;SDS011;4517;49.020;12.066;2023-02-26T01:45:10;10.30;;;9.40;;
8964;SDS011;4517;49.020;12.066;2023-02-26T01:50:18;9.67;;;9.17;;
8964;SDS011;4517;49.020;12.066;2023-02-26T01:55:21;9.37;;;8.47;;
8964;SDS011;4517;49.020;12.066;2023-02-26T01:57:50;8.47;;;7.87;;
8964;SDS011;4517;49.020;12.066;2023-02-26T02:00:18;8.43;;;7.83;;
8964;SDS011;4517;49.020;12.066;2023-02-26T02:02:44;8.53;;;8.13;;
8964;SDS011;4517;49.020;12.066;2023-02-26T02:05:12;9.00;;;8.40;;
8964;SDS011;4517;49.020;12.066;2023-02-26T02:07:45;8.87;;;8.23;;
8964;SDS011;4517;49.020;12.066;2023-02-26T02:10:10;8.53;;;8.00;;
8964;SDS011;4517;49.020;12.066;2023-02-26T02:15:15;11.23;;;9.07;;
8964;SDS011;4517;49.020;12.066;2023-02-26T02:18:01;8.43;;;8.07;;
8964;SDS011;4517;49.020;12.066;2023-02-26T02:21:00;9.13;;;8.60;;
8964;SDS011;4517;49.020;12.066;2023-02-26T02:23:55;9.40;;;8.70;;
8964;SDS011;4517;49.020;12.066;2023-02-26T02:26:55;9.23;;;8.63;;
8964;SDS011;4517;49.020;12.066;2023-02-26T02:34:36;8.93;;;8.47;;
8964;SDS011;4517;49.020;12.066;2023-02-26T02:37:17;8.73;;;8.23;;
8964;SDS011;4517;49.020;12.066;2023-02-26T02:42:45;8.73;;;8.13;;
8964;SDS011;4517;49.020;12.066;2023-02-26T02:45:21;8.43;;;7.90;;
8964;SDS011;4517;49.020;12.066;2023-02-26T02:47:56;8.40;;;8.10;;
8964;SDS011;4517;49.020;12.066;2023-02-26T02:50:28;8.63;;;8.13;;
8964;SDS011;4517;49.020;12.066;2023-02-26T02:53:17;8.83;;;8.33;;
8964;SDS011;4517;49.020;12.066;2023-02-26T02:56:09;8.63;;;8.30;;
8964;SDS011;4517;49.020;12.066;2023-02-26T02:58:41;10.60;;;10.10;;
8964;SDS011;4517;49.020;12.066;2023-02-26T03:01:11;9.57;;;8.87;;
8964;SDS011;4517;49.020;12.066;2023-02-26T03:04:41;8.70;;;8.30;;
8964;SDS011;4517;49.020;12.066;2023-02-26T03:06:37;9.00;;;8.40;;
8964;SDS011;4517;49.020;12.066;2023-02-26T03:09:03;9.30;;;8.90;;
8964;SDS011;4517;49.020;12.066;2023-02-26T03:11:31;9.43;;;8.60;;
8964;SDS011;4517;49.020;12.066;2023-02-26T03:13:56;8.57;;;8.00;;
8964;SDS011;4517;49.020;12.066;2023-02-26T03:16:28;9.47;;;8.97;;
8964;SDS011;4517;49.020;12.066;2023-02-26T03:18:59;9.30;;;8.80;;
8964;SDS011;4517;49.020;12.066;2023-02-26T03:24:14;8.50;;;8.10;;
8964;SDS011;4517;49.020;12.066;2023-02-26T03:26:55;9.07;;;8.67;;
8964;SDS011;4517;49.020;12.066;2023-02-26T03:32:04;8.87;;;8.30;;
8964;SDS011;4517;49.020;12.066;2023-02-26T03:34:38;9.70;;;9.00;;
8964;SDS011;4517;49.020;12.066;2023-02-26T03:37:14;9.47;;;8.97;;
8964;SDS011;4517;49.020;12.066;2023-02-26T03:39:53;9.33;;;8.60;;
8964;SDS011;4517;49.020;12.066;2023-02-26T03:42:31;9.70;;;9.30;;
8964;SDS011;4517;49.020;12.066;2023-02-26T03:45:12;9.23;;;8.83;;
8964;SDS011;4517;49.020;12.066;2023-02-26T03:47:49;9.20;;;8.70;;
8964;SDS011;4517;49.020;12.066;2023-02-26T03:50:21;8.50;;;8.10;;
8964;SDS011;4517;49.020;12.066;2023-02-26T03:52:51;9.63;;;9.13;;
8964;SDS011;4517;49.020;12.066;2023-02-26T03:57:48;9.60;;;8.80;;
8964;SDS011;4517;49.020;12.066;2023-02-26T04:00:15;9.43;;;8.90;;
8964;SDS011;4517;49.020;12.066;2023-02-26T04:05:26;10.00;;;9.27;;
8964;SDS011;4517;49.020;12.066;2023-02-26T04:08:04;9.70;;;8.40;;
8964;SDS011;4517;49.020;12.066;2023-02-26T04:11:13;8.63;;;8.23;;
8964;SDS011;4517;49.020;12.066;2023-02-26T04:13:23;9.00;;;8.23;;
8964;SDS011;4517;49.020;12.066;2023-02-26T04:15:49;8.93;;;8.20;;
8964;SDS011;4517;49.020;12.066;2023-02-26T04:18:15;8.80;;;8.20;;
8964;SDS011;4517;49.020;12.066;2023-02-26T04:20:41;9.57;;;8.60;;
8964;SDS011;4517;49.020;12.066;2023-02-26T04:23:06;8.60;;;8.13;;
8964;SDS011;4517;49.020;12.066;2023-02-26T04:25:32;9.00;;;8.50;;
8964;SDS011;4517;49.020;12.066;2023-02-26T04:27:57;9.80;;;9.17;;
8964;SDS011;4517;49.020;12.066;2023-02-26T04:30:23;9.30;;;8.80;;
8964;SDS011;4517;49.020;12.066;2023-02-26T04:32:48;9.57;;;8.87;;
8964;SDS011;4517;49.020;12.066;2023-02-26T04:35:14;9.60;;;8.90;;
8964;SDS011;4517;49.020;12.066;2023-02-26T04:37:40;8.60;;;8.10;;
8964;SDS011;4517;49.020;12.066;2023-02-26T04:40:05;9.10;;;8.70;;
8964;SDS011;4517;49.020;12.066;2023-02-26T04:42:31;8.83;;;8.33;;
8964;SDS011;4517;49.020;12.066;2023-02-26T04:44:57;9.00;;;8.50;;
8964;SDS011;4517;49.020;12.066;2023-02-26T04:47:22;9.23;;;8.40;;
8964;SDS011;4517;49.020;12.066;2023-02-26T04:49:48;8.93;;;8.47;;
8964;SDS011;4517;49.020;12.066;2023-02-26T04:52:13;9.33;;;8.43;;
8964;SDS011;4517;49.020;12.066;2023-02-26T04:54:39;8.83;;;8.27;;
8964;SDS011;4517;49.020;12.066;2023-02-26T04:57:05;9.13;;;8.43;;
8964;SDS011;4517;49.020;12.066;2023-02-26T04:59:31;9.20;;;8.40;;
8964;SDS011;4517;49.020;12.066;2023-02-26T05:01:56;9.03;;;8.43;;
8964;SDS011;4517;49.020;12.066;2023-02-26T05:04:22;10.10;;;9.60;;
8964;SDS011;4517;49.020;12.066;2023-02-26T05:06:48;8.90;;;8.40;;
8964;SDS011;4517;49.020;12.066;2023-02-26T05:09:13;9.40;;;8.90;;
8964;SDS011;4517;49.020;12.066;2023-02-26T05:11:39;9.47;;;8.83;;
8964;SDS011;4517;49.020;12.066;2023-02-26T05:14:04;9.30;;;8.63;;
8964;SDS011;4517;49.020;12.066;2023-02-26T05:16:30;9.70;;;9.17;;
8964;SDS011;4517;49.020;12.066;2023-02-26T05:18:55;10.00;;;8.83;;
8964;SDS011;4517;49.020;12.066;2023-02-26T05:21:21;9.07;;;8.57;;
8964;SDS011;4517;49.020;12.066;2023-02-26T05:23:46;9.07;;;8.47;;
8964;SDS011;4517;49.020;12.066;2023-02-26T05:26:12;9.47;;;9.07;;
8964;SDS011;4517;49.020;12.066;2023-02-26T05:28:38;9.33;;;8.60;;
8964;SDS011;4517;49.020;12.066;2023-02-26T05:31:03;9.57;;;9.07;;
8964;SDS011;4517;49.020;12.066;2023-02-26T05:33:30;8.97;;;8.47;;
8964;SDS011;4517;49.020;12.066;2023-02-26T05:35:56;8.77;;;8.37;;
8964;SDS011;4517;49.020;12.066;2023-02-26T05:38:21;8.57;;;8.13;;
8964;SDS011;4517;49.020;12.066;2023-02-26T05:40:47;7.83;;;7.43;;
8964;SDS011;4517;49.020;12.066;2023-02-26T05:43:13;9.43;;;8.83;;
8964;SDS011;4517;49.020;12.066;2023-02-26T05:45:38;9.43;;;8.83;;
8964;SDS011;4517;49.020;12.066;2023-02-26T05:48:04;9.50;;;8.77;;
8964;SDS011;4517;49.020;12.066;2023-02-26T05:50:30;8.77;;;8.07;;
8964;SDS011;4517;49.020;12.066;2023-02-26T05:52:55;8.63;;;8.10;;
8964;SDS011;4517;49.020;12.066;2023-02-26T05:55:21;8.30;;;7.47;;
8964;SDS011;4517;49.020;12.066;2023-02-26T05:57:46;9.13;;;8.53;;
8964;SDS011;4517;49.020;12.066;2023-02-26T06:00:12;9.47;;;8.97;;
8964;SDS011;4517;49.020;12.066;2023-02-26T06:02:38;9.27;;;8.73;;
8964;SDS011;4517;49.020;12.066;2023-02-26T06:05:04;9.53;;;8.87;;
8964;SDS011;4517;49.020;12.066;2023-02-26T06:07:31;9.10;;;8.60;;
8964;SDS011;4517;49.020;12.066;2023-02-26T06:09:56;9.30;;;8.60;;
8964;SDS011;4517;49.020;12.066;2023-02-26T06:12:22;7.90;;;7.50;;
8964;SDS011;4517;49.020;12.066;2023-02-26T06:14:47;8.67;;;8.17;;
8964;SDS011;4517;49.020;12.066;2023-02-26T06:17:13;8.20;;;7.80;;
8964;SDS011;4517;49.020;12.066;2023-02-26T06:19:38;8.10;;;7.60;;
8964;SDS011;4517;49.020;12.066;2023-02-26T06:22:04;8.77;;;8.23;;
8964;SDS011;4517;49.020;12.066;2023-02-26T06:24:29;8.33;;;7.93;;
8964;SDS011;4517;49.020;12.066;2023-02-26T06:26:55;7.87;;;7.23;;
8964;SDS011;4517;49.020;12.066;2023-02-26T06:29:20;8.37;;;7.77;;
8964;SDS011;4517;49.020;12.066;2023-02-26T06:31:47;8.40;;;7.80;;
8964;SDS011;4517;49.020;12.066;2023-02-26T06:34:13;7.87;;;7.10;;
8964;SDS011;4517;49.020;12.066;2023-02-26T06:36:39;8.47;;;8.07;;
8964;SDS011;4517;49.020;12.066;2023-02-26T06:39:04;8.63;;;8.10;;
8964;SDS011;4517;49.020;12.066;2023-02-26T06:41:30;9.10;;;8.60;;
8964;SDS011;4517;49.020;12.066;2023-02-26T06:43:55;10.27;;;9.60;;
8964;SDS011;4517;49.020;12.066;2023-02-26T06:46:21;8.43;;;7.93;;
8964;SDS011;4517;49.020;12.066;2023-02-26T06:48:47;8.43;;;7.93;;
8964;SDS011;4517;49.020;12.066;2023-02-26T06:51:12;8.30;;;7.90;;
8964;SDS011;4517;49.020;12.066;2023-02-26T06:53:38;15.10;;;8.17;;
8964;SDS011;4517;49.020;12.066;2023-02-26T06:56:03;9.30;;;8.60;;
8964;SDS011;4517;49.020;12.066;2023-02-26T06:58:29;8.87;;;8.27;;
8964;SDS011;4517;49.020;12.066;2023-02-26T07:00:55;9.73;;;9.03;;
8964;SDS011;4517;49.020;12.066;2023-02-26T07:03:20;9.20;;;8.33;;
8964;SDS011;4517;49.020;12.066;2023-02-26T07:05:46;8.40;;;7.90;;
8964;SDS011;4517;49.020;12.066;2023-02-26T07:08:12;8.60;;;8.10;;
8964;SDS011;4517;49.020;12.066;2023-02-26T07:10:38;9.10;;;8.60;;
8964;SDS011;4517;49.020;12.066;2023-02-26T07:13:05;9.27;;;8.50;;
8964;SDS011;4517;49.020;12.066;2023-02-26T07:15:30;8.87;;;8.27;;
8964;SDS011;4517;49.020;12.066;2023-02-26T07:17:56;8.40;;;8.00;;
8964;SDS011;4517;49.020;12.066;2023-02-26T07:20:24;9.90;;;9.33;;
8964;SDS011;4517;49.020;12.066;2023-02-26T07:22:50;9.53;;;8.97;;
8964;SDS011;4517;49.020;12.066;2023-02-26T07:25:16;10.67;;;10.07;;
8964;SDS011;4517;49.020;12.066;2023-02-26T07:27:41;11.07;;;10.37;;
8964;SDS011;4517;49.020;12.066;2023-02-26T07:30:07;9.80;;;9.30;;
8964;SDS011;4517;49.020;12.066;2023-02-26T07:32:33;8.73;;;8.23;;
8964;SDS011;4517;49.020;12.066;2023-02-26T07:34:59;11.00;;;10.00;;
8964;SDS011;4517;49.020;12.066;2023-02-26T07:37:24;10.47;;;9.77;;
8964;SDS011;4517;49.020;12.066;2023-02-26T07:39:50;9.30;;;8.80;;
8964;SDS011;4517;49.020;12.066;2023-02-26T07:42:16;9.40;;;8.90;;
8964;SDS011;4517;49.020;12.066;2023-02-26T07:44:42;10.00;;;9.30;;
8964;SDS011;4517;49.020;12.066;2023-02-26T07:47:08;10.60;;;10.00;;
8964;SDS011;4517;49.020;12.066;2023-02-26T07:49:34;10.10;;;9.60;;
8964;SDS011;4517;49.020;12.066;2023-02-26T07:52:00;9.87;;;9.37;;
8964;SDS011;4517;49.020;12.066;2023-02-26T07:54:26;10.17;;;9.70;;
8964;SDS011;4517;49.020;12.066;2023-02-26T07:56:52;10.20;;;9.60;;
8964;SDS011;4517;49.020;12.066;2023-02-26T07:59:18;9.93;;;9.43;;
8964;SDS011;4517;49.020;12.066;2023-02-26T08:01:44;9.90;;;9.23;;
8964;SDS011;4517;49.020;12.066;2023-02-26T08:04:09;10.13;;;9.57;;
8964;SDS011;4517;49.020;12.066;2023-02-26T08:06:35;10.30;;;9.70;;
8964;SDS011;4517;49.020;12.066;2023-02-26T08:09:01;8.77;;;8.37;;
8964;SDS011;4517;49.020;12.066;2023-02-26T08:11:28;9.63;;;9.13;;
8964;SDS011;4517;49.020;12.066;2023-02-26T08:13:53;11.10;;;9.37;;
8964;SDS011;4517;49.020;12.066;2023-02-26T08:16:19;10.17;;;9.57;;
8964;SDS011;4517;49.020;12.066;2023-02-26T08:18:45;9.53;;;9.03;;
8964;SDS011;4517;49.020;12.066;2023-02-26T08:21:11;10.60;;;10.10;;
8964;SDS011;4517;49.020;12.066;2023-02-26T08:23:37;9.80;;;9.30;;
8964;SDS011;4517;49.020;12.066;2023-02-26T08:26:05;10.93;;;10.03;;
8964;SDS011;4517;49.020;12.066;2023-02-26T08:28:32;16.47;;;15.47;;
8964;SDS011;4517;49.020;12.066;2023-02-26T08:30:58;10.30;;;9.80;;
8964;SDS011;4517;49.020;12.066;2023-02-26T08:33:24;10.77;;;10.07;;
8964;SDS011;4517;49.020;12.066;2023-02-26T08:35:50;10.20;;;9.57;;
8964;SDS011;4517;49.020;12.066;2023-02-26T08:38:17;10.37;;;9.77;;
8964;SDS011;4517;49.020;12.066;2023-02-26T08:40:43;10.53;;;9.93;;
8964;SDS011;4517;49.020;12.066;2023-02-26T08:43:09;11.23;;;10.53;;
8964;SDS011;4517;49.020;12.066;2023-02-26T08:45:35;10.10;;;9.50;;
8964;SDS011;4517;49.020;12.066;2023-02-26T08:48:02;10.30;;;9.73;;
8964;SDS011;4517;49.020;12.066;2023-02-26T08:50:27;10.63;;;9.83;;
8964;SDS011;4517;49.020;12.066;2023-02-26T08:52:53;9.70;;;9.30;;
8964;SDS011;4517;49.020;12.066;2023-02-26T08:55:19;9.93;;;9.43;;
8964;SDS011;4517;49.020;12.066;2023-02-26T08:57:46;10.20;;;9.57;;
8964;SDS011;4517;49.020;12.066;2023-02-26T09:00:11;10.13;;;9.43;;
8964;SDS011;4517;49.020;12.066;2023-02-26T09:02:40;9.77;;;9.10;;
8964;SDS011;4517;49.020;12.066;2023-02-26T09:05:06;11.63;;;10.73;;
8964;SDS011;4517;49.020;12.066;2023-02-26T09:07:32;10.73;;;10.13;;
8964;SDS011;4517;49.020;12.066;2023-02-26T09:09:57;10.17;;;9.67;;
8964;SDS011;4517;49.020;12.066;2023-02-26T09:12:23;11.87;;;11.20;;
8964;SDS011;4517;49.020;12.066;2023-02-26T09:14:48;9.87;;;9.13;;
8964;SDS011;4517;49.020;12.066;2023-02-26T09:17:14;10.37;;;9.87;;
8964;SDS011;4517;49.020;12.066;2023-02-26T09:19:39;10.07;;;9.40;;
8964;SDS011;4517;49.020;12.066;2023-02-26T09:22:05;11.00;;;10.10;;
8964;SDS011;4517;49.020;12.066;2023-02-26T09:24:31;10.40;;;9.90;;
8964;SDS011;4517;49.020;12.066;2023-02-26T09:26:56;10.40;;;9.90;;
8964;SDS011;4517;49.020;12.066;2023-02-26T09:29:22;11.20;;;10.60;;
8964;SDS011;4517;49.020;12.066;2023-02-26T09:31:47;11.40;;;10.77;;
8964;SDS011;4517;49.020;12.066;2023-02-26T09:34:13;9.90;;;9.30;;
8964;SDS011;4517;49.020;12.066;2023-02-26T09:36:40;11.13;;;10.33;;
8964;SDS011;4517;49.020;12.066;2023-02-26T09:39:08;10.30;;;9.80;;
8964;SDS011;4517;49.020;12.066;2023-02-26T09:41:48;11.43;;;10.73;;
8964;SDS011;4517;49.020;12.066;2023-02-26T09:44:19;12.40;;;11.50;;
8964;SDS011;4517;49.020;12.066;2023-02-26T09:52:16;12.63;;;11.47;;
8964;SDS011;4517;49.020;12.066;2023-02-26T09:54:55;12.47;;;11.57;;
8964;SDS011;4517;49.020;12.066;2023-02-26T09:57:29;12.10;;;11.50;;
8964;SDS011;4517;49.020;12.066;2023-02-26T09:59:57;12.47;;;11.87;;
8964;SDS011;4517;49.020;12.066;2023-02-26T10:07:35;11.17;;;10.57;;
8964;SDS011;4517;49.020;12.066;2023-02-26T10:12:53;11.00;;;10.40;;
8964;SDS011;4517;49.020;12.066;2023-02-26T10:15:25;10.17;;;9.50;;
8964;SDS011;4517;49.020;12.066;2023-02-26T10:23:30;10.33;;;9.73;;
8964;SDS011;4517;49.020;12.066;2023-02-26T10:34:27;10.93;;;10.23;;
8964;SDS011;4517;49.020;12.066;2023-02-26T10:37:18;10.87;;;10.37;;
8964;SDS011;4517;49.020;12.066;2023-02-26T10:42:37;10.67;;;10.27;;
8964;SDS011;4517;49.020;12.066;2023-02-26T10:47:54;10.70;;;10.20;;
8964;SDS011;4517;49.020;12.066;2023-02-26T10:50:20;11.37;;;10.87;;
8964;SDS011;4517;49.020;12.066;2023-02-26T10:52:47;11.20;;;10.70;;
8964;SDS011;4517;49.020;12.066;2023-02-26T10:58:03;11.10;;;10.60;;
8964;SDS011;4517;49.020;12.066;2023-02-26T11:00:38;11.20;;;10.47;;
8964;SDS011;4517;49.020;12.066;2023-02-26T11:03:06;11.80;;;11.30;;
8964;SDS011;4517;49.020;12.066;2023-02-26T11:05:37;11.90;;;11.30;;
8964;SDS011;4517;49.020;12.066;2023-02-26T11:08:25;12.00;;;11.20;;
8964;SDS011;4517;49.020;12.066;2023-02-26T11:10:57;12.40;;;11.40;;
8964;SDS011;4517;49.020;12.066;2023-02-26T11:13:25;12.30;;;11.60;;
8964;SDS011;4517;49.020;12.066;2023-02-26T11:15:54;12.23;;;11.50;;
8964;SDS011;4517;49.020;12.066;2023-02-26T11:18:38;12.07;;;11.47;;
8964;SDS011;4517;49.020;12.066;2023-02-26T11:21:15;11.27;;;10.67;;
8964;SDS011;4517;49.020;12.066;2023-02-26T11:23:45;12.43;;;11.83;;
8964;SDS011;4517;49.020;12.066;2023-02-26T11:26:18;12.63;;;11.93;;
8964;SDS011;4517;49.020;12.066;2023-02-26T11:28:49;11.27;;;10.67;;
8964;SDS011;4517;49.020;12.066;2023-02-26T11:31:20;11.73;;;11.23;;
8964;SDS011;4517;49.020;12.066;2023-02-26T11:33:48;12.77;;;12.17;;
8964;SDS011;4517;49.020;12.066;2023-02-26T11:36:18;11.70;;;11.20;;
8964;SDS011;4517;49.020;12.066;2023-02-26T11:38:51;11.53;;;11.03;;
8964;SDS011;4517;49.020;12.066;2023-02-26T11:41:19;10.97;;;10.37;;
8964;SDS011;4517;49.020;12.066;2023-02-26T11:43:47;11.97;;;11.37;;
8964;SDS011;4517;49.020;12.066;2023-02-26T11:46:26;11.10;;;10.50;;
8964;SDS011;4517;49.020;12.066;2023-02-26T11:48:52;10.40;;;9.90;;
8964;SDS011;4517;49.020;12.066;2023-02-26T11:51:23;10.90;;;10.40;;
8964;SDS011;4517;49.020;12.066;2023-02-26T11:53:52;10.73;;;10.23;;
8964;SDS011;4517;49.020;12.066;2023-02-26T11:56:38;11.80;;;11.20;;
8964;SDS011;4517;49.020;12.066;2023-02-26T12:01:40;20.73;;;19.47;;
8964;SDS011;4517;49.020;12.066;2023-02-26T12:04:08;11.50;;;10.80;;
8964;SDS011;4517;49.020;12.066;2023-02-26T12:06:36;11.17;;;10.40;;
8964;SDS011;4517;49.020;12.066;2023-02-26T12:09:02;11.07;;;10.57;;
8964;SDS011;4517;49.020;12.066;2023-02-26T12:11:41;10.40;;;9.90;;
8964;SDS011;4517;49.020;12.066;2023-02-26T12:28:12;11.33;;;10.80;;
8964;SDS011;4517;49.020;12.066;2023-02-26T12:30:44;11.70;;;10.77;;
8964;SDS011;4517;49.020;12.066;2023-02-26T12:39:08;11.63;;;11.07;;
8964;SDS011;4517;49.020;12.066;2023-02-26T12:41:58;12.53;;;11.63;;
8964;SDS011;4517;49.020;12.066;2023-02-26T12:57:56;11.37;;;10.57;;
8964;SDS011;4517;49.020;12.066;2023-02-26T13:11:04;10.07;;;9.57;;
8964;SDS011;4517;49.020;12.066;2023-02-26T13:14:00;10.33;;;9.93;;
8964;SDS011;4517;49.020;12.066;2023-02-26T13:21:49;11.30;;;10.70;;
8964;SDS011;4517;49.020;12.066;2023-02-26T13:24:27;11.00;;;10.50;;
8964;SDS011;4517;49.020;12.066;2023-02-26T13:27:03;10.87;;;10.27;;
8964;SDS011;4517;49.020;12.066;2023-02-26T13:29:33;10.73;;;10.13;;
8964;SDS011;4517;49.020;12.066;2023-02-26T13:32:08;10.60;;;10.07;;
8964;SDS011;4517;49.020;12.066;2023-02-26T13:34:56;11.17;;;10.47;;
8964;SDS011;4517;49.020;12.066;2023-02-26T13:37:38;10.33;;;9.80;;
8964;SDS011;4517;49.020;12.066;2023-02-26T13:43:05;9.50;;;9.00;;
8964;SDS011;4517;49.020;12.066;2023-02-26T13:49:01;10.93;;;10.33;;
8964;SDS011;4517;49.020;12.066;2023-02-26T13:51:43;10.87;;;10.17;;
8964;SDS011;4517;49.020;12.066;2023-02-26T14:01:32;9.90;;;9.40;;
8964;SDS011;4517;49.020;12.066;2023-02-26T14:13:01;9.77;;;9.23;;
8964;SDS011;4517;49.020;12.066;2023-02-26T14:15:42;10.00;;;9.50;;
8964;SDS011;4517;49.020;12.066;2023-02-26T14:21:26;11.00;;;10.40;;
8964;SDS011;4517;49.020;12.066;2023-02-26T14:23:56;9.30;;;8.80;;
8964;SDS011;4517;49.020;12.066;2023-02-26T14:26:26;11.00;;;10.30;;
8964;SDS011;4517;49.020;12.066;2023-02-26T14:28:57;11.40;;;10.87;;
8964;SDS011;4517;49.020;12.066;2023-02-26T14:34:52;11.10;;;10.10;;
8964;SDS011;4517;49.020;12.066;2023-02-26T14:37:22;10.57;;;10.07;;
8964;SDS011;4517;49.020;12.066;2023-02-26T14:42:47;12.50;;;11.80;;
8964;SDS011;4517;49.020;12.066;2023-02-26T14:48:01;11.23;;;10.70;;
8964;SDS011;4517;49.020;12.066;2023-02-26T15:01:43;11.17;;;10.47;;
8964;SDS011;4517;49.020;12.066;2023-02-26T15:04:14;11.47;;;10.83;;
8964;SDS011;4517;49.020;12.066;2023-02-26T15:06:49;10.50;;;9.90;;
8964;SDS011;4517;49.020;12.066;2023-02-26T15:09:24;14.10;;;13.10;;
8964;SDS011;4517;49.020;12.066;2023-02-26T15:11:56;10.50;;;10.00;;
8964;SDS011;4517;49.020;12.066;2023-02-26T15:14:43;10.90;;;10.40;;
8964;SDS011;4517;49.020;12.066;2023-02-26T15:17:20;10.90;;;10.27;;
8964;SDS011;4517;49.020;12.066;2023-02-26T15:25:15;8.03;;;7.60;;
8964;SDS011;4517;49.020;12.066;2023-02-26T15:27:54;9.73;;;9.33;;
8964;SDS011;4517;49.020;12.066;2023-02-26T15:30:21;9.13;;;8.73;;
8964;SDS011;4517;49.020;12.066;2023-02-26T15:32:47;10.10;;;9.57;;
8964;SDS011;4517;49.020;12.066;2023-02-26T15:35:17;8.30;;;7.80;;
8964;SDS011;4517;49.020;12.066;2023-02-26T15:37:55;10.27;;;9.77;;
8964;SDS011;4517;49.020;12.066;2023-02-26T15:40:26;9.47;;;9.07;;
8964;SDS011;4517;49.020;12.066;2023-02-26T15:42:56;9.80;;;9.30;;
8964;SDS011;4517;49.020;12.066;2023-02-26T15:45:37;9.90;;;9.20;;
8964;SDS011;4517;49.020;12.066;2023-02-26T15:48:15;10.30;;;9.60;;
8964;SDS011;4517;49.020;12.066;2023-02-26T15:50:45;10.83;;;9.93;;
8964;SDS011;4517;49.020;12.066;2023-02-26T15:53:38;9.60;;;9.13;;
8964;SDS011;4517;49.020;12.066;2023-02-26T15:56:12;9.63;;;8.93;;
8964;SDS011;4517;49.020;12.066;2023-02-26T15:58:53;14.60;;;9.93;;
8964;SDS011;4517;49.020;12.066;2023-02-26T16:01:24;11.43;;;10.50;;
8964;SDS011;4517;49.020;12.066;2023-02-26T16:03:51;10.13;;;9.53;;
8964;SDS011;4517;49.020;12.066;2023-02-26T16:06:27;9.13;;;8.63;;
8964;SDS011;4517;49.020;12.066;2023-02-26T16:08:59;10.67;;;9.60;;
8964;SDS011;4517;49.020;12.066;2023-02-26T16:11:31;9.10;;;8.60;;
8964;SDS011;4517;49.020;12.066;2023-02-26T16:14:03;8.23;;;7.83;;
8964;SDS011;4517;49.020;12.066;2023-02-26T16:16:43;9.50;;;8.70;;
8964;SDS011;4517;49.020;12.066;2023-02-26T16:19:13;9.60;;;9.00;;
8964;SDS011;4517;49.020;12.066;2023-02-26T16:21:45;9.73;;;9.10;;
8964;SDS011;4517;49.020;12.066;2023-02-26T16:24:16;9.43;;;8.93;;
8964;SDS011;4517;49.020;12.066;2023-02-26T16:26:49;10.60;;;10.00;;
8964;SDS011;4517;49.020;12.066;2023-02-26T16:29:22;9.33;;;8.73;;
8964;SDS011;4517;49.020;12.066;2023-02-26T16:31:51;8.90;;;8.50;;
8964;SDS011;4517;49.020;12.066;2023-02-26T16:37:21;8.27;;;7.83;;
8964;SDS011;4517;49.020;12.066;2023-02-26T16:39:55;7.67;;;7.13;;
8964;SDS011;4517;49.020;12.066;2023-02-26T16:42:35;12.90;;;12.10;;
8964;SDS011;4517;49.020;12.066;2023-02-26T16:48:02;7.30;;;6.90;;
8964;SDS011;4517;49.020;12.066;2023-02-26T16:50:33;7.10;;;6.70;;
8964;SDS011;4517;49.020;12.066;2023-02-26T16:53:04;7.10;;;6.70;;
8964;SDS011;4517;49.020;12.066;2023-02-26T16:55:41;7.97;;;7.53;;
8964;SDS011;4517;49.020;12.066;2023-02-26T16:58:11;9.23;;;8.63;;
8964;SDS011;4517;49.020;12.066;2023-02-26T17:00:39;13.00;;;8.53;;
8964;SDS011;4517;49.020;12.066;2023-02-26T17:03:13;8.50;;;7.90;;
8964;SDS011;4517;49.020;12.066;2023-02-26T17:05:43;7.10;;;6.70;;
8964;SDS011;4517;49.020;12.066;2023-02-26T17:08:22;9.10;;;8.40;;
8964;SDS011;4517;49.020;12.066;2023-02-26T17:10:59;6.73;;;6.33;;
8964;SDS011;4517;49.020;12.066;2023-02-26T17:13:28;8.27;;;7.47;;
8964;SDS011;4517;49.020;12.066;2023-02-26T17:16:00;8.30;;;7.80;;
8964;SDS011;4517;49.020;12.066;2023-02-26T17:18:27;8.43;;;7.67;;
8964;SDS011;4517;49.020;12.066;2023-02-26T17:20:53;8.70;;;7.83;;
8964;SDS011;4517;49.020;12.066;2023-02-26T17:23:19;7.10;;;6.63;;
8964;SDS011;4517;49.020;12.066;2023-02-26T17:25:49;7.27;;;6.97;;
8964;SDS011;4517;49.020;12.066;2023-02-26T17:28:20;10.17;;;8.00;;
8964;SDS011;4517;49.020;12.066;2023-02-26T17:30:51;7.60;;;7.20;;
8964;SDS011;4517;49.020;12.066;2023-02-26T17:33:17;7.40;;;6.90;;
8964;SDS011;4517;49.020;12.066;2023-02-26T17:35:43;7.70;;;7.30;;
8964;SDS011;4517;49.020;12.066;2023-02-26T17:38:10;8.47;;;8.07;;
8964;SDS011;4517;49.020;12.066;2023-02-26T17:40:40;9.13;;;8.33;;
8964;SDS011;4517;49.020;12.066;2023-02-26T17:43:08;12.20;;;11.20;;
8964;SDS011;4517;49.020;12.066;2023-02-26T17:45:34;8.50;;;7.90;;
8964;SDS011;4517;49.020;12.066;2023-02-26T17:48:00;8.53;;;7.93;;
8964;SDS011;4517;49.020;12.066;2023-02-26T17:53:15;8.80;;;8.20;;
8964;SDS011;4517;49.020;12.066;2023-02-26T17:55:42;9.63;;;9.03;;
8964;SDS011;4517;49.020;12.066;2023-02-26T17:58:16;8.00;;;7.40;;
8964;SDS011;4517;49.020;12.066;2023-02-26T18:00:57;9.43;;;8.73;;
8964;SDS011;4517;49.020;12.066;2023-02-26T18:03:23;8.97;;;8.07;;
8964;SDS011;4517;49.020;12.066;2023-02-26T18:05:50;10.93;;;8.70;;
8964;SDS011;4517;49.020;12.066;2023-02-26T18:08:31;8.83;;;8.13;;
8964;SDS011;4517;49.020;12.066;2023-02-26T18:11:01;9.03;;;8.27;;